Aberdeen, North Carolina
Current Conditions -  °F | °C
As of 1:15 PM on Friday 28 Nov 2014 (Local Time) from KSOP Reporting Station
Clear Clear  
Wind Chill:   Ceiling: Unl
Heat Index:   Visibility: 10mi
Dew Point: -20°   Wind: 0mph
Humidity: 11%   Direction: NA
Pressure: 30.31"   Gusts: NA
Location:  35.13°N, 79.43°W
Report Text: KSOP 281815Z AUTO 00000KT 10SM CLR 09/M20 A3031 RMK AO1
Loading
Personal Weather Stations






























Interactive Weather Map New forecast layout! Learn more

10-Day Weather Forecast

Advertisements
Track Severe Weather on mobile